CheckWX is a tool to help pilots better visualize weather data.  It is not intended as a substitute for an official pre-flight weather briefing.

04:53:33 UTC

EFJO TAF
Joensuu Airport
Joensuu / Liperi, Finland
TAF EFJO 180229Z 1803/1812 25006KT CAVOK TEMPO 1808/1810 FEW040CB

Jun-18@
03:00 UTC

Jun-18 @ 03:00 UTC

Jun-18@
12:00 UTC

Jun-18 @ 12:00 UTC

TAF EFJO 180229Z 1803/1812 25006KT CAVOK
Wind
  • 250° at 6 KTS
Conditions
No significant weather
Cloud Levels
  • No significant clouds

Jun-18@
08:00 UTC

Jun-18 @ 08:00 UTC

Jun-18@
10:00 UTC

Jun-18 @ 10:00 UTC

TEMPO 1808/1810 FEW040CB

Temporary

Temporary Changes expected for less than half the time period

Cloud Levels
  • Few at 4,000' AGL